Time;durP1;ratioP1;P1;durP2;ratioP2;P2;SDS_P1;SDS_P2;PMS_P1;PMS_P2;Temp;Humidity;BMP_temperature;BMP_pressure;BME280_temperature;BME280_humidity;BME280_pressure;Samples;Min_cycle;Max_cycle;Signal;HPM_P1;HPM_P2
2022/09/27 00:01:08;;;;;;;11.38;1.20;;;;;;;9.96;100.00;99681.75;5078825;28;20031;-67
2022/09/27 00:03:33;;;;;;;7.22;1.15;;;;;;;9.97;100.00;99682.66;5085368;28;20039;-66
2022/09/27 00:06:11;;;;;;;12.55;1.83;;;;;;;9.98;100.00;99687.00;5076660;28;20492;-67
2022/09/27 00:08:36;;;;;;;15.32;1.33;;;;;;;9.97;100.00;99690.53;5075094;28;20036;-67
2022/09/27 00:11:12;;;;;;;20.25;1.50;;;;;;;9.96;100.00;99683.50;5080736;28;20044;-66
2022/09/27 00:13:38;;;;;;;11.15;1.23;;;;;;;9.95;100.00;99684.38;5068495;28;20449;-67
2022/09/27 00:16:06;;;;;;;12.13;1.70;;;;;;;9.94;100.00;99691.41;5061062;28;20583;-65
2022/09/27 00:18:32;;;;;;;11.85;1.63;;;;;;;9.91;100.00;99693.13;5065443;28;20542;-65
2022/09/27 00:21:09;;;;;;;6.65;1.17;;;;;;;9.91;100.00;99687.88;5070007;28;20028;-66
2022/09/27 00:23:35;;;;;;;7.68;2.05;;;;;;;9.88;100.00;99687.88;5066584;28;20111;-66
2022/09/27 00:26:00;;;;;;;8.63;1.42;;;;;;;9.86;100.00;99684.38;5065581;28;20042;-65
2022/09/27 00:28:26;;;;;;;10.40;1.05;;;;;;;9.82;100.00;99686.13;5042783;28;20033;-66
2022/09/27 00:30:52;;;;;;;10.93;1.75;;;;;;;9.82;100.00;99698.38;5066843;28;20565;-65
2022/09/27 00:33:18;;;;;;;14.52;2.05;;;;;;;9.82;100.00;99698.38;5069451;28;20024;-66
2022/09/27 00:35:44;;;;;;;10.80;1.42;;;;;;;9.93;100.00;99694.91;5061114;28;20032;-66
2022/09/27 00:38:10;;;;;;;7.30;1.45;;;;;;;10.00;100.00;99693.16;5072241;28;20035;-66
2022/09/27 00:40:35;;;;;;;16.95;1.63;;;;;;;10.02;100.00;99694.00;5057381;28;20028;-66
2022/09/27 00:43:01;;;;;;;12.52;1.95;;;;;;;10.04;100.00;99704.56;5055438;28;20025;-66
2022/09/27 00:45:26;;;;;;;10.27;1.90;;;;;;;10.10;100.00;99697.50;5067327;28;20090;-65
2022/09/27 00:48:04;;;;;;;10.32;1.55;;;;;;;10.15;100.00;99697.53;5065897;28;20026;-65
2022/09/27 00:50:37;;;;;;;10.27;1.13;;;;;;;10.19;100.00;99694.03;5068529;28;20032;-66
2022/09/27 00:53:22;;;;;;;11.15;1.30;;;;;;;10.18;100.00;99708.03;5074558;28;20021;-65
2022/09/27 00:55:53;;;;;;;16.63;1.58;;;;;;;10.17;100.00;99701.00;5058365;28;20032;-65
2022/09/27 00:58:24;;;;;;;4.80;0.90;;;;;;;10.25;100.00;99698.41;5075088;28;20440;-65
2022/09/27 01:00:52;;;;;;;13.70;2.05;;;;;;;10.23;100.00;99700.16;5057345;28;20119;-65
2022/09/27 01:03:30;;;;;;;17.98;1.50;;;;;;;10.25;100.00;99698.41;5071541;28;20020;-65
2022/09/27 01:05:57;;;;;;;13.43;1.35;;;;;;;10.24;100.00;99701.88;5064951;28;20024;-65
2022/09/27 01:08:22;;;;;;;8.63;1.02;;;;;;;10.25;100.00;99706.28;5071629;28;20044;-65
2022/09/27 01:11:13;;;;;;;15.85;1.48;;;;;;;10.25;100.00;99708.91;5074772;28;20036;-65
2022/09/27 01:14:07;;;;;;;8.73;1.30;;;;;;;10.27;100.00;99713.28;5086225;28;20029;-66
2022/09/27 01:17:01;;;;;;;4.53;1.65;;;;;;;10.36;100.00;99716.81;5053426;28;20449;-65
2022/09/27 01:19:49;;;;;;;5.43;1.48;;;;;;;10.34;100.00;99719.44;5046494;28;20036;-66
2022/09/27 01:22:51;;;;;;;8.15;1.35;;;;;;;10.33;100.00;99708.91;5081306;28;20147;-65
2022/09/27 01:25:38;;;;;;;6.15;1.25;;;;;;;10.33;100.00;99722.94;5015369;28;20051;-66
2022/09/27 01:28:17;;;;;;;8.38;1.73;;;;;;;10.35;100.00;99720.31;5061902;28;20032;-66
2022/09/27 01:30:54;;;;;;;5.25;1.20;;;;;;;10.34;100.00;99721.19;5071971;28;20020;-66
2022/09/27 01:33:29;;;;;;;11.90;1.52;;;;;;;10.36;100.00;99730.84;5076133;28;20043;-66
2022/09/27 01:36:13;;;;;;;5.65;0.82;;;;;;;10.38;100.00;99726.47;5075873;28;20039;-66
2022/09/27 01:39:00;;;;;;;5.20;1.05;;;;;;;10.42;100.00;99716.84;5067790;28;20032;-66
2022/09/27 01:41:43;;;;;;;7.28;0.73;;;;;;;10.38;100.00;99715.94;5062213;28;20577;-66
2022/09/27 01:44:20;;;;;;;9.88;1.02;;;;;;;10.36;100.00;99716.81;5076867;28;20111;-66
2022/09/27 01:46:53;;;;;;;3.17;0.50;;;;;;;10.31;100.00;99716.81;5075558;28;20468;-66
2022/09/27 01:49:24;;;;;;;;;;;;;;;10.32;100.00;99715.91;5069147;28;20035;-66
2022/09/27 01:51:56;;;;;;;4.30;0.70;;;;;;;10.30;100.00;99717.69;5075124;28;19912;-66
2022/09/27 01:54:27;;;;;;;13.10;1.20;;;;;;;10.34;100.00;99713.31;5071264;28;20388;-65
2022/09/27 01:56:56;;;;;;;6.60;0.88;;;;;;;10.36;100.00;99706.31;5079877;28;20031;-65
2022/09/27 01:59:28;;;;;;;7.55;0.77;;;;;;;10.33;100.00;99717.66;5081531;28;20529;-66
2022/09/27 02:01:58;;;;;;;5.38;0.95;;;;;;;10.30;100.00;99712.41;5079799;28;20029;-66
2022/09/27 02:04:27;;;;;;;7.70;1.40;;;;;;;10.30;100.00;99708.03;5083460;28;20400;-65
2022/09/27 02:07:00;;;;;;;7.95;1.30;;;;;;;10.31;100.00;99703.66;5076676;28;20028;-66
2022/09/27 02:09:32;;;;;;;6.97;0.90;;;;;;;10.31;100.00;99698.41;5091315;28;20035;-66
2022/09/27 02:12:02;;;;;;;7.60;0.95;;;;;;;10.32;100.00;99705.38;5092554;28;20113;-65
2022/09/27 02:14:43;;;;;;;5.05;0.90;;;;;;;10.36;100.00;99706.31;5081537;28;20043;-66
2022/09/27 02:17:44;;;;;;;7.47;1.35;;;;;;;10.34;100.00;99719.44;5074855;28;20059;-66
2022/09/27 02:20:28;;;;;;;11.50;1.15;;;;;;;10.23;100.00;99755.38;5082966;28;20018;-66
2022/09/27 02:23:05;;;;;;;7.38;0.85;;;;;;;10.05;100.00;99754.47;5074560;28;20024;-66
2022/09/27 02:26:08;;;;;;;12.15;1.60;;;;;;;9.81;100.00;99739.56;5068788;28;20056;-67
2022/09/27 02:28:34;;;;;;;12.67;0.80;;;;;;;9.68;100.00;99737.78;5052280;28;20539;-66
2022/09/27 02:30:59;;;;;;;10.50;1.25;;;;;;;9.49;100.00;99731.59;5067451;28;20174;-66
2022/09/27 02:33:38;;;;;;;4.35;0.63;;;;;;;9.36;100.00;99730.66;5080449;28;20147;-66
2022/09/27 02:36:04;;;;;;;6.30;0.77;;;;;;;9.26;100.00;99727.13;5069835;28;20105;-66
2022/09/27 02:38:30;;;;;;;1.80;0.57;;;;;;;9.18;100.00;99710.47;5055627;28;20079;-66
2022/09/27 02:40:56;;;;;;;9.20;0.93;;;;;;;9.15;100.00;99716.59;5087937;28;20112;-66
2022/09/27 02:43:29;;;;;;;6.88;1.08;;;;;;;9.17;100.00;99711.34;5081717;28;20048;-65
2022/09/27 02:45:57;;;;;;;4.35;0.70;;;;;;;9.13;100.00;99701.69;5073019;28;20025;-66
2022/09/27 02:48:47;;;;;;;10.88;1.17;;;;;;;9.10;100.00;99708.72;5072496;28;20162;-66
2022/09/27 02:51:32;;;;;;;6.80;0.93;;;;;;;9.07;100.00;99703.44;5074165;28;20503;-66
2022/09/27 02:54:14;;;;;;;6.10;0.85;;;;;;;9.02;100.00;99709.53;5067742;28;20032;-66
2022/09/27 02:56:48;;;;;;;1.85;0.77;;;;;;;8.90;100.00;99710.38;5081440;28;20035;-66
2022/09/27 02:59:44;;;;;;;6.53;1.15;;;;;;;8.82;100.00;99710.31;5074894;28;20042;-66
2022/09/27 03:02:21;;;;;;;8.98;0.90;;;;;;;8.77;100.00;99702.41;5083434;28;20031;-66
2022/09/27 03:04:54;;;;;;;4.22;1.33;;;;;;;8.72;100.00;99709.41;5076796;28;20028;-66
2022/09/27 03:07:21;;;;;;;10.00;0.90;;;;;;;8.68;100.00;99705.00;5080111;28;20052;-66
2022/09/27 03:09:49;;;;;;;7.88;1.00;;;;;;;8.66;100.00;99700.63;5081905;28;20023;-66
2022/09/27 03:12:21;;;;;;;5.82;0.95;;;;;;;8.62;100.00;99704.97;5069992;28;20080;-66
2022/09/27 03:14:47;;;;;;;6.75;0.90;;;;;;;8.60;100.00;99696.22;5082158;28;20468;-66
2022/09/27 03:17:12;;;;;;;6.47;0.90;;;;;;;8.60;100.00;99701.47;5069706;28;20021;-66
2022/09/27 03:19:38;;;;;;;5.85;0.85;;;;;;;8.63;100.00;99696.22;5075983;28;20032;-66
2022/09/27 03:22:03;;;;;;;8.82;1.58;;;;;;;8.69;100.00;99695.38;5083266;28;20038;-66
2022/09/27 03:24:28;;;;;;;11.65;2.28;;;;;;;8.75;100.00;99691.06;5070246;28;20020;-65
2022/09/27 03:26:54;;;;;;;7.55;1.08;;;;;;;8.76;100.00;99686.66;5080438;28;20035;-66
2022/09/27 03:29:19;;;;;;;7.45;1.05;;;;;;;8.78;100.00;99691.06;5081337;28;20024;-65
2022/09/27 03:31:45;;;;;;;8.23;2.03;;;;;;;8.78;100.00;99692.81;5092541;28;20077;-66
2022/09/27 03:34:10;;;;;;;13.02;1.17;;;;;;;8.81;100.00;99710.31;5073744;28;20093;-66
2022/09/27 03:36:35;;;;;;;11.32;1.20;;;;;;;8.84;100.00;99728.69;5072942;28;20066;-66
2022/09/27 03:39:00;;;;;;;5.65;1.02;;;;;;;8.86;100.00;99730.44;5071700;28;20406;-66
2022/09/27 03:41:26;;;;;;;9.05;1.00;;;;;;;8.86;100.00;99729.59;5074145;28;20078;-66
2022/09/27 03:43:51;;;;;;;7.57;1.15;;;;;;;8.88;100.00;99727.84;5086256;28;20161;-66
2022/09/27 03:46:16;;;;;;;6.70;1.02;;;;;;;8.88;100.00;99725.22;5081446;28;20016;-66
2022/09/27 03:48:42;;;;;;;7.80;0.95;;;;;;;8.88;100.00;99718.22;5071766;28;20480;-66
2022/09/27 03:51:11;;;;;;;6.20;1.00;;;;;;;8.93;100.00;99715.63;5076314;28;20069;-66
2022/09/27 03:53:36;;;;;;;7.82;1.02;;;;;;;8.97;100.00;99721.75;5082942;28;20448;-65
2022/09/27 03:56:01;;;;;;;4.80;0.82;;;;;;;8.97;100.00;99706.00;5080414;28;20031;-65
2022/09/27 03:58:27;;;;;;;8.40;0.80;;;;;;;8.90;100.00;99711.22;5071832;28;20041;-65
2022/09/27 04:00:52;;;;;;;4.47;0.88;;;;;;;8.91;100.00;99705.13;5058465;28;20036;-66
2022/09/27 04:03:18;;;;;;;6.70;0.85;;;;;;;8.91;100.00;99714.72;5080455;28;20036;-67
2022/09/27 04:05:44;;;;;;;6.75;1.00;;;;;;;8.91;100.00;99728.75;5083405;28;20029;-64
2022/09/27 04:08:10;;;;;;;8.50;0.90;;;;;;;8.94;100.00;99734.00;5072437;28;20032;-65
2022/09/27 04:10:36;;;;;;;6.72;1.00;;;;;;;8.94;100.00;99713.00;5077108;28;20040;-66
2022/09/27 04:13:02;;;;;;;6.85;0.77;;;;;;;8.96;100.00;99704.28;5072195;28;20024;-65
2022/09/27 04:15:27;;;;;;;7.30;1.02;;;;;;;8.96;100.00;99702.50;5084533;28;20035;-65
2022/09/27 04:17:53;;;;;;;8.45;1.00;;;;;;;8.97;100.00;99700.75;5074206;28;20033;-65
2022/09/27 04:20:18;;;;;;;8.88;1.50;;;;;;;8.98;100.00;99697.25;5074969;28;20082;-65
2022/09/27 04:22:44;;;;;;;5.85;0.80;;;;;;;8.97;100.00;99698.13;5073427;28;20105;-66
2022/09/27 04:25:10;;;;;;;4.20;0.60;;;;;;;8.98;100.00;99698.16;5084454;28;20020;-65
2022/09/27 04:27:36;;;;;;;6.10;0.75;;;;;;;8.98;100.00;99702.50;5082792;28;20490;-66
2022/09/27 04:30:04;;;;;;;6.10;0.60;;;;;;;8.98;100.00;99700.78;5082584;28;20031;-65
2022/09/27 04:32:29;;;;;;;4.75;0.47;;;;;;;9.00;100.00;99695.53;5083609;28;20028;-65
2022/09/27 04:37:40;;;;;;;3.20;0.70;;;;;;;9.00;100.00;99699.03;5080432;28;20078;-65
2022/09/27 04:40:06;;;;;;;3.85;0.50;;;;;;;9.01;100.00;99703.41;5073454;28;20467;-66
2022/09/27 04:42:32;;;;;;;15.15;1.67;;;;;;;9.01;100.00;99708.66;5084878;28;20052;-65
2022/09/27 04:44:58;;;;;;;5.75;0.82;;;;;;;9.00;100.00;99714.78;5086353;28;20028;-66
2022/09/27 04:47:23;;;;;;;10.18;1.00;;;;;;;8.96;100.00;99699.88;5081779;28;20043;-65
2022/09/27 04:49:48;;;;;;;4.00;0.65;;;;;;;8.95;100.00;99706.00;5069460;28;20025;-66
2022/09/27 04:52:14;;;;;;;11.25;0.98;;;;;;;8.92;100.00;99703.38;5079236;28;20025;-66
2022/09/27 04:54:40;;;;;;;4.93;0.95;;;;;;;8.92;100.00;99700.75;5079938;28;20039;-64
2022/09/27 04:57:06;;;;;;;6.65;0.80;;;;;;;8.93;100.00;99716.50;5079901;28;20103;-65
2022/09/27 04:59:31;;;;;;;8.95;1.00;;;;;;;8.92;100.00;99732.22;5072241;28;20112;-65
2022/09/27 05:01:59;;;;;;;10.18;1.00;;;;;;;8.94;100.00;99733.13;5075366;28;20483;-64
2022/09/27 05:04:25;;;;;;;3.63;0.85;;;;;;;8.96;100.00;99726.13;5081365;28;20536;-67
2022/09/27 05:06:50;;;;;;;10.30;0.80;;;;;;;8.98;100.00;99727.03;5074512;28;20024;-67
2022/09/27 05:09:16;;;;;;;3.75;0.55;;;;;;;8.98;100.00;99727.03;5072916;28;20024;-65
2022/09/27 05:11:41;;;;;;;10.63;1.98;;;;;;;8.95;100.00;99719.13;5059355;28;20090;-66
2022/09/27 05:14:06;;;;;;;4.28;0.50;;;;;;;8.92;100.00;99740.09;5053452;28;20388;-66
2022/09/27 05:16:32;;;;;;;7.43;0.70;;;;;;;8.89;100.00;99719.97;5050918;28;20033;-67
2022/09/27 05:18:58;;;;;;;7.00;0.60;;;;;;;8.86;100.00;99719.09;5057671;28;20037;-65
2022/09/27 05:21:23;;;;;;;4.68;0.93;;;;;;;8.85;100.00;99728.69;5058402;28;20070;-68
2022/09/27 05:23:48;;;;;;;6.93;0.80;;;;;;;8.83;100.00;99722.56;5049622;28;20040;-67
2022/09/27 05:26:14;;;;;;;8.48;0.90;;;;;;;8.84;100.00;99721.69;5051081;28;20484;-67
2022/09/27 05:28:41;;;;;;;6.47;0.60;;;;;;;8.86;100.00;99721.72;5052918;28;20067;-67
2022/09/27 05:31:07;;;;;;;7.43;0.80;;;;;;;8.86;100.00;99721.72;5054280;28;20124;-68
2022/09/27 05:33:33;;;;;;;6.25;0.85;;;;;;;8.89;100.00;99719.09;5054777;28;20219;-67
2022/09/27 05:35:58;;;;;;;8.15;0.90;;;;;;;8.91;100.00;99725.22;5056472;28;20396;-67
2022/09/27 05:38:24;;;;;;;6.28;0.93;;;;;;;8.92;100.00;99713.88;5056305;28;20389;-67
2022/09/27 05:40:50;;;;;;;6.25;1.13;;;;;;;8.94;100.00;99722.63;5052748;28;20028;-68
2022/09/27 05:43:20;;;;;;;10.52;1.20;;;;;;;8.93;100.00;99711.25;5054367;28;20040;-66
2022/09/27 05:45:46;;;;;;;9.88;1.10;;;;;;;8.93;100.00;99721.75;5052555;28;20025;-68
2022/09/27 05:48:13;;;;;;;8.50;1.15;;;;;;;8.94;100.00;99712.13;5057139;28;20021;-68
2022/09/27 05:50:38;;;;;;;4.57;0.55;;;;;;;8.96;100.00;99717.38;5064595;28;20092;-67
2022/09/27 05:53:04;;;;;;;11.05;2.55;;;;;;;8.96;100.00;99714.75;5054727;28;20032;-66
2022/09/27 05:55:29;;;;;;;7.50;0.80;;;;;;;8.96;100.00;99718.25;5036413;28;20032;-67
2022/09/27 05:57:57;;;;;;;3.97;0.85;;;;;;;8.96;100.00;99720.00;5053058;28;20393;-68
2022/09/27 06:00:24;;;;;;;10.77;0.90;;;;;;;8.96;100.00;99720.00;5051837;28;20095;-68
2022/09/27 06:02:57;;;;;;;7.90;0.80;;;;;;;8.94;100.00;99717.38;5057385;28;20346;-68
2022/09/27 06:05:24;;;;;;;11.02;1.10;;;;;;;8.94;100.00;99718.25;5071662;28;20032;-65
2022/09/27 06:07:51;;;;;;;8.32;1.00;;;;;;;8.93;100.00;99726.13;5064543;28;20116;-66
2022/09/27 06:10:18;;;;;;;9.07;0.70;;;;;;;8.95;100.00;99721.75;5054931;28;20059;-65
2022/09/27 06:12:44;;;;;;;6.38;1.25;;;;;;;8.94;100.00;99714.75;5071931;28;20115;-65
2022/09/27 06:15:10;;;;;;;3.63;0.75;;;;;;;8.94;100.00;99715.63;5073070;28;20095;-66
2022/09/27 06:17:36;;;;;;;11.88;1.50;;;;;;;8.95;100.00;99713.88;5070906;28;20039;-66
2022/09/27 06:20:02;;;;;;;8.40;0.80;;;;;;;8.97;100.00;99717.41;5071954;28;20020;-66
2022/09/27 06:22:27;;;;;;;10.18;0.98;;;;;;;8.98;100.00;99716.53;5073149;28;20086;-67
2022/09/27 06:24:52;;;;;;;13.73;1.58;;;;;;;8.98;100.00;99727.03;5076648;28;20028;-67
2022/09/27 06:27:18;;;;;;;4.57;0.90;;;;;;;8.99;100.00;99720.88;5073051;28;20032;-67
2022/09/27 06:29:43;;;;;;;4.35;0.80;;;;;;;8.96;100.00;99728.75;5069831;28;20109;-66
2022/09/27 06:32:09;;;;;;;3.45;1.17;;;;;;;8.94;100.00;99728.75;5070435;28;20115;-67
2022/09/27 06:34:35;;;;;;;4.45;0.80;;;;;;;8.97;100.00;99734.84;5070885;28;20020;-66
2022/09/27 06:37:00;;;;;;;6.40;0.95;;;;;;;8.99;100.00;99736.63;5072081;28;20078;-66
2022/09/27 06:39:25;;;;;;;9.45;0.90;;;;;;;8.99;100.00;99743.63;5072405;28;20032;-67
2022/09/27 06:41:56;;;;;;;7.90;1.27;;;;;;;8.96;100.00;99734.00;5071778;28;20036;-66
2022/09/27 06:44:23;;;;;;;3.85;0.60;;;;;;;9.00;100.00;99737.53;5071216;28;20457;-66
2022/09/27 06:46:49;;;;;;;3.05;0.80;;;;;;;8.99;100.00;99736.63;5071688;28;20543;-66
2022/09/27 06:49:14;;;;;;;5.05;1.02;;;;;;;8.87;100.00;99732.22;5070715;28;20365;-67
2022/09/27 06:51:41;;;;;;;1.48;0.55;;;;;;;8.89;100.00;99740.09;5071273;28;20297;-66
2022/09/27 06:54:06;;;;;;;4.60;1.10;;;;;;;8.84;100.00;99768.03;5071744;28;20032;-66
2022/09/27 06:56:31;;;;;;;4.80;0.60;;;;;;;8.78;100.00;99763.63;5071569;28;20051;-67
2022/09/27 07:01:40;;;;;;;6.20;0.73;;;;;;;8.42;100.00;99792.19;5071902;28;20047;-68
2022/09/27 07:04:08;;;;;;;4.35;0.57;;;;;;;8.40;100.00;99787.81;5071936;28;20024;-67
2022/09/27 07:06:34;;;;;;;8.35;1.10;;;;;;;8.39;100.00;99786.03;5071791;28;20111;-68
2022/09/27 07:08:59;;;;;;;8.30;1.20;;;;;;;8.38;100.00;99787.78;5072339;28;20067;-68
2022/09/27 07:11:25;;;;;;;10.95;1.00;;;;;;;8.40;100.00;99788.66;5072169;28;20068;-67
2022/09/27 07:13:50;;;;;;;4.90;1.00;;;;;;;8.48;100.00;99806.22;5071897;28;20032;-68
2022/09/27 07:16:16;;;;;;;6.38;1.10;;;;;;;8.53;100.00;99794.94;5072033;28;20476;-67
2022/09/27 07:18:41;;;;;;;12.65;1.30;;;;;;;8.59;100.00;99789.72;5071567;28;20024;-68
2022/09/27 07:21:07;;;;;;;9.35;0.90;;;;;;;8.67;100.00;99781.03;5075026;28;20034;-67
2022/09/27 07:23:34;;;;;;;8.00;0.90;;;;;;;8.71;100.00;99788.94;5072394;28;20035;-67
2022/09/27 07:26:06;;;;;;;12.02;1.38;;;;;;;8.76;100.00;99792.47;5072240;28;20113;-67
2022/09/27 07:28:32;;;;;;;4.43;1.50;;;;;;;8.84;100.00;99795.13;5072247;28;20025;-67
2022/09/27 07:30:57;;;;;;;8.45;1.52;;;;;;;8.89;100.00;99793.44;5072238;28;20028;-67
2022/09/27 07:33:22;;;;;;;12.35;1.70;;;;;;;8.96;100.00;99794.34;5071986;28;20074;-68
2022/09/27 07:35:48;;;;;;;9.95;0.98;;;;;;;9.01;100.00;99797.00;5072321;28;20032;-67
2022/09/27 07:38:14;;;;;;;6.90;1.27;;;;;;;9.05;100.00;99778.66;5071635;28;20040;-67
2022/09/27 07:40:40;;;;;;;17.83;1.92;;;;;;;9.10;100.00;99779.56;5071574;28;20032;-67
2022/09/27 07:43:07;;;;;;;9.57;1.23;;;;;;;9.18;100.00;99783.97;5071040;28;20020;-67
2022/09/27 07:45:32;;;;;;;11.32;1.42;;;;;;;9.19;100.00;99778.72;5070309;28;20112;-67
2022/09/27 07:47:57;;;;;;;6.70;1.00;;;;;;;9.24;100.00;99774.38;5070911;28;20109;-67
2022/09/27 07:50:23;;;;;;;13.50;1.38;;;;;;;9.30;100.00;99773.53;5071193;28;20020;-67
2022/09/27 07:52:50;;;;;;;6.60;1.20;;;;;;;9.34;100.00;99764.78;5053072;28;20469;-69
2022/09/27 07:55:16;;;;;;;12.35;1.40;;;;;;;9.40;100.00;99784.94;5071316;28;20024;-68
2022/09/27 07:57:43;;;;;;;18.92;1.75;;;;;;;9.44;100.00;99791.94;5073545;28;20507;-67
2022/09/27 08:00:13;;;;;;;16.67;2.70;;;;;;;9.50;100.00;99801.63;5073215;28;20028;-68
2022/09/27 08:02:39;;;;;;;15.75;1.45;;;;;;;9.55;100.00;99800.78;5071990;28;20043;-68
2022/09/27 08:05:04;;;;;;;7.45;1.30;;;;;;;9.61;100.00;99805.16;5072352;28;20025;-68
2022/09/27 08:07:31;;;;;;;13.13;1.60;;;;;;;9.66;100.00;99803.44;5074806;28;20383;-68
2022/09/27 08:09:57;;;;;;;12.13;1.00;;;;;;;9.70;100.00;99799.94;5074962;28;20103;-67
2022/09/27 08:12:22;;;;;;;17.33;1.73;;;;;;;9.72;100.00;99802.56;5075171;28;20100;-67
2022/09/27 08:14:48;;;;;;;15.93;1.48;;;;;;;9.70;100.00;99818.34;5074981;28;20112;-68
2022/09/27 08:17:14;;;;;;;4.68;1.17;;;;;;;9.70;100.00;99820.97;5060516;28;20036;-67
2022/09/27 08:19:40;;;;;;;12.60;1.58;;;;;;;9.65;100.00;99821.81;5044632;28;20033;-67
2022/09/27 08:22:08;;;;;;;9.65;1.40;;;;;;;9.55;100.00;99834.91;5043016;28;20096;-66
2022/09/27 08:24:34;;;;;;;11.68;1.10;;;;;;;9.51;100.00;99841.03;5062371;28;20452;-67
2022/09/27 08:27:01;;;;;;;8.50;0.90;;;;;;;9.47;100.00;99839.25;5050188;28;20032;-68
2022/09/27 08:29:26;;;;;;;13.35;1.63;;;;;;;9.43;100.00;99829.59;5054966;28;20024;-68
2022/09/27 08:31:52;;;;;;;13.88;1.45;;;;;;;9.43;100.00;99833.09;5054848;28;20457;-68
2022/09/27 08:34:18;;;;;;;13.25;1.08;;;;;;;9.42;100.00;99833.09;5056391;28;20047;-68
2022/09/27 08:36:43;;;;;;;9.40;1.13;;;;;;;9.39;100.00;99815.56;5041873;28;20020;-68
2022/09/27 08:39:09;;;;;;;7.28;1.20;;;;;;;9.42;100.00;99818.22;5064300;28;20052;-68
2022/09/27 08:41:49;;;;;;;11.18;1.25;;;;;;;9.44;100.00;99826.09;5054850;28;20436;-67
2022/09/27 08:44:42;;;;;;;15.45;1.80;;;;;;;9.39;100.00;99831.34;5054762;28;20021;-68
2022/09/27 08:47:14;;;;;;;10.88;1.33;;;;;;;9.38;100.00;99829.56;5054645;28;20025;-68
2022/09/27 08:49:42;;;;;;;8.68;1.30;;;;;;;9.37;100.00;99830.47;5056922;28;20030;-68
2022/09/27 08:52:17;;;;;;;10.30;1.17;;;;;;;9.23;100.00;99834.75;5064646;28;20422;-68
2022/09/27 08:54:45;;;;;;;6.25;1.20;;;;;;;9.23;100.00;99832.13;5062166;28;20020;-68
2022/09/27 08:57:12;;;;;;;8.05;1.80;;;;;;;9.25;100.00;99828.63;5066080;28;20024;-68
2022/09/27 08:59:47;;;;;;;4.57;0.90;;;;;;;9.29;100.00;99819.00;5027293;28;20059;-69
2022/09/27 09:02:19;;;;;;;7.22;1.25;;;;;;;9.19;100.00;99825.97;5068674;28;20444;-68
2022/09/27 09:04:48;;;;;;;9.75;1.60;;;;;;;9.26;100.00;99824.25;5056726;28;20086;-68
2022/09/27 09:07:44;;;;;;;7.22;1.20;;;;;;;9.34;100.00;99811.19;5053495;28;20048;-69
2022/09/27 09:12:45;;;;;;;7.28;1.00;;;;;;;9.35;100.00;99820.81;5071511;28;20032;-68
2022/09/27 09:13:35;;;;;;;4.50;0.70;;;;;;;9.42;100.00;99814.72;5073814;28;20032;-68
2022/09/27 09:16:16;;;;;;;8.15;0.80;;;;;;;9.52;100.00;99810.38;5073770;28;20029;-68
2022/09/27 09:19:06;;;;;;;8.98;0.90;;;;;;;9.69;100.00;99815.72;5071514;28;20075;-68
2022/09/27 09:21:58;;;;;;;8.23;1.50;;;;;;;9.76;100.00;99814.84;5073891;28;20032;-68
2022/09/27 09:24:35;;;;;;;3.53;1.10;;;;;;;9.82;100.00;99816.59;5073357;28;20046;-68
2022/09/27 09:27:19;;;;;;;3.83;1.45;;;;;;;9.91;100.00;99816.63;5073304;28;20031;-68
2022/09/27 09:29:58;;;;;;;;;;;;;;;9.83;100.00;99832.38;5073958;28;20073;-68
2022/09/27 09:32:43;;;;;;;8.45;1.40;;;;;;;9.74;100.00;99841.13;5073735;28;19998;-68
2022/09/27 09:35:27;;;;;;;3.75;0.60;;;;;;;9.57;100.00;99851.53;5072955;28;20017;-69
2022/09/27 09:37:54;;;;;;;;;;;;;;;9.43;100.00;99848.00;5074065;28;20033;-68
2022/09/27 09:40:39;;;;;;;4.70;0.93;;;;;;;9.41;100.00;99849.72;5073266;28;19912;-69
2022/09/27 09:43:15;;;;;;;6.75;0.88;;;;;;;9.26;100.00;99861.91;5073210;28;20184;-70
2022/09/27 09:45:44;;;;;;;6.03;0.73;;;;;;;9.15;100.00;99860.06;5073297;28;20028;-69
2022/09/27 09:48:21;;;;;;;6.72;0.80;;;;;;;9.05;100.00;99852.13;5073359;28;20029;-68
2022/09/27 09:50:50;;;;;;;7.43;0.88;;;;;;;9.04;100.00;99857.38;5072017;28;20032;-68
2022/09/27 09:53:43;;;;;;;5.35;0.70;;;;;;;9.05;100.00;99857.38;5054761;28;20540;-69
2022/09/27 09:56:17;;;;;;;9.00;0.90;;;;;;;9.06;100.00;99853.00;5073173;28;20039;-68
2022/09/27 09:58:48;;;;;;;5.10;0.80;;;;;;;9.08;100.00;99861.78;5073061;28;20111;-68
2022/09/27 10:01:17;;;;;;;5.32;0.90;;;;;;;8.98;100.00;99859.94;5073313;28;20479;-69
2022/09/27 10:03:43;;;;;;;4.50;0.90;;;;;;;8.94;100.00;99874.81;5074262;28;20055;-69
2022/09/27 10:06:10;;;;;;;8.65;1.15;;;;;;;8.90;100.00;99880.91;5073056;28;20025;-69
2022/09/27 10:08:36;;;;;;;11.63;1.10;;;;;;;8.90;100.00;99865.16;5072190;28;20036;-70
2022/09/27 10:11:01;;;;;;;5.55;0.80;;;;;;;8.77;100.00;99856.28;5069763;28;20036;-69
2022/09/27 10:13:32;;;;;;;3.30;1.00;;;;;;;8.67;100.00;99860.59;5058349;28;20036;-69
2022/09/27 10:16:06;;;;;;;6.85;0.73;;;;;;;8.49;100.00;99855.19;5069454;28;20452;-68
2022/09/27 10:18:35;;;;;;;2.92;0.70;;;;;;;8.35;100.00;99861.13;5049412;28;20049;-68
2022/09/27 10:21:05;;;;;;;4.90;0.75;;;;;;;8.35;100.00;99869.00;5052425;28;20036;-68
2022/09/27 10:23:31;;;;;;;5.57;0.80;;;;;;;8.30;100.00;99849.72;5053567;28;20029;-68
2022/09/27 10:26:03;;;;;;;7.13;1.33;;;;;;;8.34;100.00;99848.03;5051426;28;20545;-69
2022/09/27 10:28:31;;;;;;;8.52;0.70;;;;;;;8.36;100.00;99844.56;5051802;28;20035;-68
2022/09/27 10:31:00;;;;;;;3.28;0.98;;;;;;;8.41;100.00;99841.97;5063205;28;20051;-68
2022/09/27 10:33:26;;;;;;;5.75;1.42;;;;;;;8.48;100.00;99846.44;5052091;28;20465;-68
2022/09/27 10:35:52;;;;;;;6.20;0.93;;;;;;;8.53;100.00;99836.00;5060818;28;20542;-68
2022/09/27 10:38:17;;;;;;;3.00;1.50;;;;;;;8.58;100.00;99834.28;5056942;28;20052;-67
2022/09/27 10:40:43;;;;;;;5.75;1.02;;;;;;;8.53;100.00;99839.50;5037788;28;20392;-68
2022/09/27 10:43:32;;;;;;;4.25;1.17;;;;;;;8.55;100.00;99842.16;5052575;28;20094;-69
2022/09/27 10:46:27;;;;;;;6.10;1.42;;;;;;;8.57;100.00;99835.16;5071708;28;20043;-68
2022/09/27 10:49:31;;;;;;;5.53;1.25;;;;;;;8.58;100.00;99839.53;5032464;28;20025;-68
2022/09/27 10:52:03;;;;;;;3.67;1.10;;;;;;;8.55;100.00;99844.75;4971195;28;20117;-68
2022/09/27 10:54:32;;;;;;;12.32;1.35;;;;;;;8.55;100.00;99839.53;5041593;28;20037;-68
2022/09/27 10:57:25;;;;;;;8.90;1.10;;;;;;;8.59;100.00;99830.81;5052307;28;20021;-68
2022/09/27 11:00:01;;;;;;;6.95;1.08;;;;;;;8.61;100.00;99823.81;5050696;28;20041;-67
2022/09/27 11:02:31;;;;;;;2.78;0.70;;;;;;;8.63;100.00;99826.44;5052922;28;20514;-67
2022/09/27 11:05:29;;;;;;;10.93;1.40;;;;;;;8.69;100.00;99816.03;5051994;28;20021;-68
2022/09/27 11:08:01;;;;;;;8.48;1.70;;;;;;;8.82;100.00;99816.97;5037225;28;20061;-68
2022/09/27 11:10:31;;;;;;;11.60;2.00;;;;;;;8.93;100.00;99820.56;5064272;28;20080;-68
2022/09/27 11:13:12;;;;;;;6.53;1.98;;;;;;;9.03;100.00;99822.38;5071505;28;20036;-68
2022/09/27 11:15:56;;;;;;;8.50;1.48;;;;;;;9.11;100.00;99810.19;5055857;28;20029;-68
2022/09/27 11:18:54;;;;;;;3.83;1.15;;;;;;;9.18;100.00;99818.09;5066660;28;20066;-68
2022/09/27 11:21:26;;;;;;;8.88;1.60;;;;;;;9.21;100.00;99818.09;5071542;28;20437;-68
2022/09/27 11:24:23;;;;;;;14.23;1.40;;;;;;;9.28;100.00;99817.28;5071961;28;20110;-68
2022/09/27 11:26:48;;;;;;;9.75;1.10;;;;;;;9.35;100.00;99811.19;5042863;28;20025;-68
2022/09/27 11:29:25;;;;;;;6.65;1.30;;;;;;;9.42;100.00;99815.59;5062944;28;20033;-68
2022/09/27 11:31:56;;;;;;;5.47;1.52;;;;;;;9.47;100.00;99817.34;5062599;28;20033;-68
2022/09/27 11:34:42;;;;;;;5.93;1.48;;;;;;;9.41;100.00;99813.84;5058532;28;20473;-69
2022/09/27 11:37:26;;;;;;;6.45;1.33;;;;;;;9.42;100.00;99812.97;5057962;28;20021;-68
2022/09/27 11:40:25;;;;;;;5.80;1.25;;;;;;;9.40;100.00;99814.72;5062442;28;20028;-68
2022/09/27 11:43:05;;;;;;;9.52;1.63;;;;;;;9.48;100.00;99819.13;5075492;28;20530;-68
2022/09/27 11:45:34;;;;;;;5.68;1.40;;;;;;;9.51;100.00;99811.25;5076860;28;20268;-68
2022/09/27 11:48:18;;;;;;;3.92;1.30;;;;;;;9.71;100.00;99809.59;5078014;28;20029;-67
2022/09/27 11:51:02;;;;;;;2.17;1.00;;;;;;;9.79;100.00;99807.88;5078466;28;20064;-68
2022/09/27 11:53:46;;;;;;;5.85;1.30;;;;;;;9.75;100.00;99810.47;5077577;28;20090;-68
2022/09/27 11:56:26;;;;;;;10.63;2.28;;;;;;;9.75;100.00;99808.72;5068083;28;20035;-68